Palm Springs, CA

4:27 PM PST on December 28, 2014 (GMT -0800)
Desert Resorts Regional | Change Station
CLOSE
Current Station
Airport
Location: Thermal,
Elevation: -115 ft
Nearby Weather Stations

Elev -115 ft 33.63 °N, 116.16 °W | Updated 35 minutes ago

Clear
Clear
60 °F
Feels Like 60 °F
N
5
Wind Variable Wind from ENE

Today
High -- | Low -- °F
--% Chance of Precip.
Yesterday
High -- | Low -- °F
Precip. -- in
6:50 AM 4:45 PM
First Quarter, 53% visible
Pressure 30.16 in
Visibility 10.0 miles
Clouds Clear
Dew Point 10 °F
Humidity 14%
Rainfall 0.00 in
Snow Depth Not available.
UV 0 out of 12
Pollen 5.50 out of 12
Air Quality Not available.
Flu Activity Not available.
METAR KTRM 282352Z AUTO 07004KT 10SM CLR 16/M12 A3016 RMK AO2 SLP211 T01561122 10167 20100 56018 TSNO

More Conditions Fewer Conditions

Pressure 30.16 in
Visibility 10.0 miles
Clouds Clear
Dew Point 10 °F
Humidity 14%
Rainfall 0.00 in
Snow Depth Not available.
UV 0 out of 12
Pollen 5.50 out of 12
Air Quality Not available.
Flu Activity Not available.
METAR KTRM 282352Z AUTO 07004KT 10SM CLR 16/M12 A3016 RMK AO2 SLP211 T01561122 10167 20100 56018 TSNO

More Conditions Fewer Conditions

10-Day Weather Forecast

Almanac

Astronomy

Dec. 28, 2014 Rise Set
Actual Time
Civil Twilight
Nautical Twilight
Astronomical Twilight
Moon
Length of Visible Light
Length of Day
Tomorrow will be .
, % of the Moon is Illuminated

Today's Extremes

State Highs State Lows

Community

WunderPhotos

Upload Photos

1,781,468 photos uploaded!

WunderBlogs® & News

Nearby

Air Quality

  Air Quality AQ Index Pollutant
Not available.

Snow Depth

Station Depth Elevation

Earthquake Activity

City Distance Mag. Time & Date
Minimum magnitude displayed is 2.5.

Coastal Water Temperatures

Place Temperature

Nearby Weather Stations